Time;durP1;ratioP1;P1;durP2;ratioP2;P2;SDS_P1;SDS_P2;PMS_P1;PMS_P2;Temp;Humidity;BMP_temperature;BMP_pressure;BME280_temperature;BME280_humidity;BME280_pressure;Samples;Min_cycle;Max_cycle;Signal;HPM_P1;HPM_P2
2022/10/06 00:01:52;;;;;;;10.67;7.13;;;11.20;99.90;;;;;;4772710;30;20269;-89
2022/10/06 00:04:18;;;;;;;13.30;6.80;;;11.30;99.90;;;;;;4772000;30;20304;-89
2022/10/06 00:06:51;;;;;;;12.97;6.93;;;11.30;99.90;;;;;;4788214;29;20235;-88
2022/10/06 00:09:52;;;;;;;15.03;6.87;;;11.20;99.90;;;;;;4775621;24;20245;-87
2022/10/06 00:12:18;;;;;;;10.63;6.60;;;11.30;99.90;;;;;;4768968;30;20258;-87
2022/10/06 00:14:57;;;;;;;9.93;6.30;;;11.20;99.90;;;;;;4770363;30;20235;-88
2022/10/06 00:17:27;;;;;;;11.73;7.07;;;11.30;99.90;;;;;;4754745;30;20679;-84
2022/10/06 00:19:53;;;;;;;11.30;6.90;;;11.20;99.90;;;;;;4770081;30;20204;-85
2022/10/06 00:22:23;;;;;;;10.07;6.27;;;11.20;99.90;;;;;;4768997;30;20216;-87
2022/10/06 00:24:50;;;;;;;12.03;6.60;;;11.30;99.90;;;;;;4767859;30;20212;-85
2022/10/06 00:27:16;;;;;;;9.57;6.50;;;11.20;99.90;;;;;;4767564;30;20232;-84
2022/10/06 00:38:00;;;;;;;11.10;6.13;;;11.10;99.90;;;;;;4783044;24;20267;-81
2022/10/06 00:40:30;;;;;;;13.10;6.70;;;11.10;99.90;;;;;;4797747;29;20204;-82
2022/10/06 00:43:05;;;;;;;11.33;6.70;;;11.10;99.90;;;;;;4787211;29;20208;-86
2022/10/06 02:14:00;;;;;;;12.33;6.23;;;10.80;99.90;;;;;;4787248;29;20663;-85
2022/10/06 02:20:07;;;;;;;8.53;5.63;;;10.90;99.90;;;;;;4809096;24;20234;-86
2022/10/06 02:23:16;;;;;;;14.90;5.97;;;10.90;99.90;;;;;;4735861;30;20414;-84
2022/10/06 02:26:33;;;;;;;9.43;5.50;;;10.90;99.90;;;;;;4660975;30;20309;-86
2022/10/06 02:34:48;;;;;;;11.27;6.00;;;10.90;99.90;;;;;;4773085;24;20371;-83
2022/10/06 02:37:16;;;;;;;8.63;5.73;;;10.90;99.90;;;;;;4791003;29;20204;-84
2022/10/06 02:39:43;;;;;;;11.37;5.40;;;10.90;99.90;;;;;;4791081;29;20245;-85
2022/10/06 02:42:09;;;;;;;9.30;5.80;;;11.00;99.90;;;;;;4791356;29;20202;-86
2022/10/06 02:47:13;;;;;;;15.70;5.87;;;10.90;99.90;;;;;;4790625;24;20236;-86
2022/10/06 02:49:40;;;;;;;8.97;5.53;;;11.00;99.90;;;;;;4789728;30;20604;-84
2022/10/06 02:52:34;;;;;;;10.67;5.70;;;11.00;99.90;;;;;;4788978;29;20204;-88
2022/10/06 02:58:41;;;;;;;8.80;5.50;;;10.90;99.90;;;;;;4791355;24;20596;-84
2022/10/06 03:02:20;;;;;;;10.57;5.77;;;10.90;99.90;;;;;;4784039;24;20251;-83
2022/10/06 03:16:50;;;;;;;9.27;5.60;;;10.90;99.90;;;;;;4783902;24;20243;-84
2022/10/06 03:20:29;;;;;;;8.90;5.70;;;10.90;99.90;;;;;;4769936;30;20778;-85
2022/10/06 03:23:19;;;;;;;9.17;5.60;;;10.90;99.90;;;;;;4769949;30;20336;-86
2022/10/06 03:26:53;;;;;;;10.70;5.67;;;10.80;99.90;;;;;;4715905;30;20237;-85
2022/10/06 03:29:20;;;;;;;12.77;5.83;;;10.90;99.90;;;;;;4716342;30;20199;-85
2022/10/06 03:32:22;;;;;;;12.33;5.73;;;10.90;99.90;;;;;;4663366;30;20217;-87
2022/10/06 03:49:20;;;;;;;;;;;;;;;;;;;;;
2022/10/06 04:05:57;;;;;;;8.47;5.27;;;10.70;99.90;;;;;;5170644;24;20338;-84
2022/10/06 04:08:24;;;;;;;9.80;5.80;;;10.90;99.90;;;;;;4786089;29;20235;-83
2022/10/06 04:10:51;;;;;;;10.70;5.47;;;10.80;99.90;;;;;;4773496;30;20236;-86
2022/10/06 04:13:20;;;;;;;9.47;5.10;;;10.90;99.90;;;;;;4762385;30;20227;-84
2022/10/06 04:15:47;;;;;;;9.00;5.20;;;10.90;99.90;;;;;;4756853;30;20209;-86
2022/10/06 04:18:17;;;;;;;8.47;5.50;;;10.90;99.90;;;;;;4757689;30;20573;-85
2022/10/06 04:20:59;;;;;;;9.67;5.30;;;10.90;99.90;;;;;;4772970;30;20216;-87
2022/10/06 04:32:46;;;;;;;9.60;5.40;;;10.90;99.90;;;;;;4752653;30;20216;-83
2022/10/06 04:52:16;;;;;;;;;;;;;;;;;;;;;
2022/10/06 05:05:56;;;;;;;8.50;5.47;;;10.90;99.90;;;;;;4909973;24;20338;-86
2022/10/06 05:08:33;;;;;;;10.27;5.10;;;10.90;99.90;;;;;;4774051;30;20212;-83
2022/10/06 05:12:12;;;;;;;8.93;5.37;;;10.90;99.90;;;;;;4833908;24;20954;-86
2022/10/06 05:21:47;;;;;;;12.13;5.70;;;11.00;99.90;;;;;;4737675;30;20222;-85
2022/10/06 05:24:14;;;;;;;9.33;5.47;;;11.00;99.90;;;;;;4722160;30;20225;-83
2022/10/06 05:26:41;;;;;;;10.60;5.80;;;11.10;99.90;;;;;;4728031;30;20222;-85
2022/10/06 05:29:08;;;;;;;11.73;5.63;;;11.10;99.90;;;;;;4735240;30;20685;-86
2022/10/06 05:31:37;;;;;;;10.83;5.47;;;11.00;99.90;;;;;;4736447;30;20602;-86
2022/10/06 05:34:05;;;;;;;9.27;5.50;;;11.20;99.90;;;;;;4735184;30;20210;-86
2022/10/06 05:36:32;;;;;;;7.40;5.20;;;11.30;99.90;;;;;;4733913;30;20220;-85
2022/10/06 05:39:00;;;;;;;9.87;5.53;;;11.30;99.90;;;;;;4735616;30;20311;-81
2022/10/06 05:41:31;;;;;;;9.13;5.60;;;11.40;99.90;;;;;;4734701;30;20249;-83
2022/10/06 05:43:59;;;;;;;12.27;5.80;;;11.40;99.90;;;;;;4732205;30;20218;-83
2022/10/06 05:46:28;;;;;;;9.70;5.57;;;11.50;99.90;;;;;;4718355;30;20234;-81
2022/10/06 05:49:07;;;;;;;8.33;5.40;;;11.60;99.90;;;;;;4718738;30;20218;-84
2022/10/06 05:51:37;;;;;;;9.87;5.53;;;11.60;99.90;;;;;;4735005;30;20213;-81
2022/10/06 05:54:05;;;;;;;8.77;5.43;;;11.70;99.90;;;;;;4762035;24;20635;-81
2022/10/06 05:56:35;;;;;;;12.20;5.70;;;11.80;99.90;;;;;;4767767;30;20232;-79
2022/10/06 05:59:03;;;;;;;9.90;5.57;;;11.90;99.90;;;;;;4768812;30;20696;-80
2022/10/06 06:01:56;;;;;;;10.00;5.30;;;11.90;99.90;;;;;;4769767;30;20213;-81
2022/10/06 06:04:23;;;;;;;8.73;5.30;;;12.10;99.90;;;;;;4769861;30;20632;-81
2022/10/06 06:06:50;;;;;;;7.03;4.97;;;12.20;99.90;;;;;;4769083;30;20224;-81
2022/10/06 06:09:20;;;;;;;11.33;5.33;;;12.40;99.90;;;;;;4758133;30;20281;-82
2022/10/06 06:11:49;;;;;;;11.10;5.20;;;12.60;99.90;;;;;;4751995;30;20252;-82
2022/10/06 06:15:59;;;;;;;7.60;5.27;;;12.70;99.90;;;;;;4752020;30;20202;-84
2022/10/06 06:17:07;;;;;;;8.23;5.00;;;12.80;99.90;;;;;;4753124;30;20204;-82
2022/10/06 06:19:34;;;;;;;8.90;4.67;;;12.90;99.90;;;;;;4752082;30;20221;-81
2022/10/06 06:22:01;;;;;;;8.23;4.67;;;13.10;99.90;;;;;;4760761;30;20213;-82
2022/10/06 06:24:28;;;;;;;8.00;4.50;;;13.30;99.90;;;;;;4755621;30;20208;-79
2022/10/06 06:26:55;;;;;;;9.07;5.00;;;13.40;99.90;;;;;;4751828;30;20239;-81
2022/10/06 06:29:22;;;;;;;9.23;4.90;;;13.50;99.90;;;;;;4766094;30;20208;-78
2022/10/06 06:31:53;;;;;;;11.33;4.90;;;13.60;99.90;;;;;;4764084;30;20731;-81
2022/10/06 06:34:20;;;;;;;8.23;4.63;;;13.70;99.90;;;;;;4769862;30;20223;-84
2022/10/06 06:43:59;;;;;;;7.97;4.30;;;14.20;99.90;;;;;;3183438;27;20232;-82
2022/10/06 06:46:32;;;;;;;6.47;4.40;;;14.30;99.90;;;;;;4772297;29;20221;-77
2022/10/06 06:49:06;;;;;;;6.90;4.37;;;14.50;99.90;;;;;;4767874;30;20693;-82
2022/10/06 06:51:39;;;;;;;8.33;4.20;;;14.70;99.90;;;;;;4753897;30;20207;-80
2022/10/06 06:54:10;;;;;;;6.80;4.30;;;14.70;99.90;;;;;;4785025;29;20714;-78
2022/10/06 06:56:37;;;;;;;6.03;3.93;;;14.80;99.90;;;;;;4771615;30;20200;-80
2022/10/06 06:59:12;;;;;;;7.17;4.27;;;14.80;99.90;;;;;;4754890;30;20224;-84
2022/10/06 07:01:44;;;;;;;9.17;4.57;;;14.80;99.90;;;;;;4755718;30;20266;-82
2022/10/06 07:04:13;;;;;;;6.83;4.30;;;14.90;99.90;;;;;;4755242;30;20213;-84
2022/10/06 07:06:49;;;;;;;5.83;4.13;;;14.90;99.90;;;;;;4753771;30;20252;-84
2022/10/06 07:09:22;;;;;;;5.80;4.07;;;14.90;99.90;;;;;;4754078;30;20770;-82
2022/10/06 07:11:49;;;;;;;8.53;3.97;;;14.90;99.90;;;;;;4740506;30;20245;-75
2022/10/06 07:25:57;;;;;;;7.60;4.57;;;15.10;99.90;;;;;;4733638;30;20768;-88
2022/10/06 07:28:24;;;;;;;5.47;3.97;;;15.30;99.90;;;;;;4733373;30;20206;-82
2022/10/06 07:30:53;;;;;;;7.13;4.30;;;15.10;99.90;;;;;;4733587;30;20287;-79
2022/10/06 07:33:20;;;;;;;6.77;4.20;;;15.20;99.90;;;;;;4733174;30;20211;-87
2022/10/06 07:35:47;;;;;;;6.77;3.90;;;15.20;99.90;;;;;;4729505;30;20577;-77
2022/10/06 07:38:23;;;;;;;6.83;4.00;;;15.20;99.90;;;;;;4715487;30;20218;-88
2022/10/06 07:40:55;;;;;;;7.73;4.03;;;15.20;99.90;;;;;;4735956;30;20658;-84
2022/10/06 07:43:45;;;;;;;6.07;4.00;;;15.20;99.90;;;;;;4732586;30;20280;-82
2022/10/06 07:46:13;;;;;;;6.93;4.30;;;15.30;99.90;;;;;;4720329;30;20202;-85
2022/10/06 07:48:42;;;;;;;7.67;4.10;;;15.30;99.90;;;;;;4735841;30;20669;-87
2022/10/06 07:51:14;;;;;;;6.37;4.00;;;15.40;99.90;;;;;;4736978;30;20214;-88
2022/10/06 07:53:49;;;;;;;7.83;4.10;;;15.30;99.90;;;;;;4736249;30;20619;-87
2022/10/06 07:56:19;;;;;;;4.73;3.63;;;15.20;99.90;;;;;;4733739;30;20262;-84
2022/10/06 07:58:47;;;;;;;6.40;4.13;;;15.20;99.90;;;;;;4743535;30;20230;-78
2022/10/06 08:01:16;;;;;;;8.50;3.93;;;15.20;99.90;;;;;;4732889;30;20198;-87
2022/10/06 08:03:47;;;;;;;8.57;4.47;;;15.30;99.90;;;;;;4970931;24;20274;-83
2022/10/06 08:06:18;;;;;;;4.97;3.80;;;15.30;99.90;;;;;;4796893;29;20215;-80
2022/10/06 08:08:46;;;;;;;7.23;4.00;;;15.20;99.90;;;;;;4800280;29;20215;-84
2022/10/06 08:11:19;;;;;;;6.97;4.03;;;15.20;99.90;;;;;;4775742;29;20241;-87
2022/10/06 08:13:47;;;;;;;8.47;3.90;;;15.20;99.90;;;;;;4791005;30;20207;-87
2022/10/06 08:16:19;;;;;;;8.60;4.43;;;15.30;99.90;;;;;;4775741;30;20196;-86
2022/10/06 08:18:52;;;;;;;5.97;4.13;;;15.40;99.90;;;;;;4772469;30;20625;-83
2022/10/06 08:21:33;;;;;;;11.17;4.30;;;15.50;99.90;;;;;;4782436;30;20215;-83
2022/10/06 08:24:00;;;;;;;8.47;4.40;;;15.60;99.90;;;;;;4781151;30;20209;-82
2022/10/06 08:26:29;;;;;;;8.07;4.00;;;15.70;99.90;;;;;;4773776;30;20230;-84
2022/10/06 08:29:01;;;;;;;7.80;4.10;;;15.80;99.90;;;;;;4773030;30;20221;-81
2022/10/06 08:31:29;;;;;;;6.97;3.70;;;15.90;99.90;;;;;;4779897;30;20218;-81
2022/10/06 08:33:56;;;;;;;6.07;4.23;;;16.10;99.90;;;;;;4790497;29;20227;-83
2022/10/06 08:36:26;;;;;;;6.20;3.90;;;16.50;99.90;;;;;;4786731;29;20657;-76
2022/10/06 08:39:01;;;;;;;7.07;3.90;;;16.80;99.90;;;;;;4789521;29;20636;-83
2022/10/06 08:44:39;;;;;;;6.67;3.70;;;17.60;99.90;;;;;;5084583;24;20236;-82
2022/10/06 08:47:16;;;;;;;7.70;3.80;;;18.00;99.90;;;;;;4773420;30;20220;-77
2022/10/06 08:49:49;;;;;;;6.23;3.77;;;18.40;99.90;;;;;;4786788;30;20292;-78
2022/10/06 08:52:45;;;;;;;7.30;3.60;;;18.80;99.90;;;;;;4787999;29;20204;-84
2022/10/06 08:55:31;;;;;;;5.93;3.70;;;19.10;99.90;;;;;;4772490;29;20221;-74
2022/10/06 08:58:04;;;;;;;5.33;3.40;;;19.30;99.90;;;;;;4766937;30;20229;-81
2022/10/06 09:00:32;;;;;;;6.17;3.53;;;19.40;99.90;;;;;;4771862;30;20209;-84
2022/10/06 09:06:59;;;;;;;4.53;3.33;;;19.90;99.90;;;;;;4769558;30;20204;-88
2022/10/06 09:10:35;;;;;;;5.80;3.80;;;20.40;99.90;;;;;;4762452;30;20197;-85
2022/10/06 09:13:05;;;;;;;6.00;3.10;;;20.70;99.90;;;;;;4771410;30;20551;-85
2022/10/06 09:15:58;;;;;;;6.73;3.30;;;20.10;99.90;;;;;;4771015;30;20239;-84
2022/10/06 09:18:59;;;;;;;6.17;3.40;;;20.10;99.90;;;;;;4785558;29;20231;-86
2022/10/06 09:21:46;;;;;;;6.63;3.57;;;20.30;99.90;;;;;;4774071;30;20200;-80
2022/10/06 09:24:15;;;;;;;6.57;3.33;;;20.00;99.90;;;;;;4762718;30;20221;-75
2022/10/06 09:27:35;;;;;;;6.73;3.47;;;19.80;99.90;;;;;;4770180;30;20648;-82
2022/10/06 09:30:21;;;;;;;10.93;3.80;;;19.90;99.90;;;;;;4703981;30;20234;-80
2022/10/06 09:33:20;;;;;;;5.23;3.30;;;19.60;99.90;;;;;;4688767;30;20222;-81
2022/10/06 09:36:11;;;;;;;5.83;3.40;;;19.70;99.90;;;;;;4705398;30;20206;-82
2022/10/06 09:39:16;;;;;;;6.60;3.27;;;19.70;99.90;;;;;;4696046;30;20227;-81
2022/10/06 09:41:44;;;;;;;4.93;3.50;;;19.80;99.90;;;;;;4716614;30;20733;-82
2022/10/06 09:44:27;;;;;;;5.00;3.60;;;19.70;99.90;;;;;;4701393;30;20210;-84
2022/10/06 09:47:33;;;;;;;7.50;3.63;;;19.70;99.90;;;;;;4696950;30;20244;-84
2022/10/06 09:53:21;;;;;;;7.07;4.13;;;19.90;99.90;;;;;;4801294;24;20336;-84
2022/10/06 09:57:21;;;;;;;5.27;3.67;;;20.10;99.90;;;;;;4875949;24;20247;-81
2022/10/06 10:00:44;;;;;;;5.17;3.70;;;20.20;99.90;;;;;;4702161;30;20238;-80
2022/10/06 10:03:51;;;;;;;6.23;4.00;;;20.40;99.90;;;;;;4716881;30;20213;-80
2022/10/06 10:06:39;;;;;;;6.63;3.93;;;20.40;99.90;;;;;;4716827;30;20225;-81
2022/10/06 10:09:32;;;;;;;9.77;4.20;;;19.90;99.90;;;;;;4718099;30;20221;-84
2022/10/06 10:12:23;;;;;;;8.17;4.23;;;19.80;99.90;;;;;;4724097;30;20275;-85
2022/10/06 10:15:20;;;;;;;6.27;4.10;;;19.50;99.90;;;;;;4719038;30;20689;-82
2022/10/06 10:21:58;;;;;;;5.20;3.50;;;19.30;99.90;;;;;;5095226;24;20244;-84
2022/10/06 10:25:29;;;;;;;4.97;3.30;;;19.10;99.90;;;;;;4771376;30;20268;-82
2022/10/06 10:28:57;;;;;;;5.13;3.77;;;19.10;99.90;;;;;;4698901;30;20661;-78
2022/10/06 10:34:29;;;;;;;7.87;4.00;;;19.20;99.90;;;;;;4898759;24;20240;-80
2022/10/06 10:37:11;;;;;;;8.80;4.60;;;19.30;99.90;;;;;;4775623;29;20214;-79
2022/10/06 10:40:00;;;;;;;8.37;4.13;;;19.30;99.90;;;;;;4761130;30;20207;-79
2022/10/06 10:42:52;;;;;;;7.80;3.83;;;19.60;99.90;;;;;;4785659;29;20212;-79
2022/10/06 10:48:21;;;;;;;7.97;4.00;;;19.80;99.90;;;;;;4767186;24;21344;-81
2022/10/06 10:54:03;;;;;;;5.30;4.10;;;19.60;99.90;;;;;;4814632;24;20331;-77
2022/10/06 10:56:32;;;;;;;6.00;4.13;;;19.40;99.90;;;;;;4769717;30;20200;-76
2022/10/06 10:59:05;;;;;;;6.00;4.00;;;19.20;99.90;;;;;;4798511;29;20230;-78
2022/10/06 11:02:10;;;;;;;6.80;4.33;;;19.00;99.90;;;;;;4798303;29;20210;-75
2022/10/06 11:04:42;;;;;;;7.07;3.90;;;18.80;99.90;;;;;;4799447;29;20244;-76
2022/10/06 11:07:27;;;;;;;6.80;4.23;;;18.80;99.90;;;;;;4784851;29;20227;-72
2022/10/06 11:10:21;;;;;;;8.70;4.60;;;18.60;99.90;;;;;;4799703;29;20597;-77
2022/10/06 11:13:14;;;;;;;7.27;4.10;;;18.60;99.90;;;;;;4803815;29;20203;-76
2022/10/06 11:15:53;;;;;;;8.77;4.20;;;18.60;99.90;;;;;;4788998;29;20219;-79
2022/10/06 11:23:30;;;;;;;7.90;4.60;;;18.60;99.90;;;;;;1580264;24;21149;-82
2022/10/06 11:26:37;;;;;;;6.10;4.00;;;18.60;99.90;;;;;;4740841;30;20238;-84
2022/10/06 11:29:31;;;;;;;6.03;4.10;;;18.60;99.90;;;;;;4739208;30;20238;-83
2022/10/06 11:32:10;;;;;;;8.60;4.37;;;18.70;99.90;;;;;;4739518;30;20210;-84
2022/10/06 11:34:39;;;;;;;9.00;4.20;;;18.80;99.90;;;;;;4750205;30;20270;-79
2022/10/06 11:37:30;;;;;;;9.10;4.50;;;18.60;99.90;;;;;;4750719;30;20216;-80
2022/10/06 11:40:25;;;;;;;8.60;4.13;;;18.70;99.90;;;;;;4751983;30;20600;-82
2022/10/06 11:43:16;;;;;;;9.37;3.97;;;18.80;99.90;;;;;;4751963;30;20619;-77
2022/10/06 11:46:06;;;;;;;4.87;3.57;;;18.90;99.90;;;;;;4748687;30;20652;-86
2022/10/06 11:48:42;;;;;;;5.43;3.80;;;18.80;99.90;;;;;;4758800;30;20313;-87
2022/10/06 11:57:35;;;;;;;7.73;3.30;;;18.90;99.90;;;;;;1396586;24;20670;31
2022/10/06 12:00:05;;;;;;;6.20;3.30;;;19.00;99.90;;;;;;4718212;24;20208;-81
2022/10/06 12:02:32;;;;;;;5.20;3.10;;;19.10;99.90;;;;;;4761518;30;20194;-77
2022/10/06 12:05:08;;;;;;;7.70;3.00;;;19.20;99.90;;;;;;4760654;30;20299;-76
2022/10/06 12:07:55;;;;;;;4.30;3.00;;;19.30;99.90;;;;;;4759544;29;20270;-80
2022/10/06 12:10:28;;;;;;;7.33;3.23;;;19.30;99.90;;;;;;4776237;29;20608;-82
2022/10/06 12:13:30;;;;;;;5.60;3.50;;;19.30;99.90;;;;;;4762445;30;20201;-83
2022/10/06 12:19:41;;;;;;;5.60;2.60;;;19.80;99.90;;;;;;4813461;24;20249;-86
2022/10/06 12:22:30;;;;;;;4.70;2.80;;;20.90;99.90;;;;;;4759166;30;20219;-75
2022/10/06 12:25:10;;;;;;;4.37;2.57;;;21.90;99.90;;;;;;4758316;30;20209;-79
2022/10/06 12:28:15;;;;;;;5.93;3.37;;;22.30;99.90;;;;;;4749341;30;20224;-82
2022/10/06 12:41:12;;;;;;;3.87;2.30;;;22.60;99.90;;;;;;4842812;24;20616;-81
2022/10/06 12:43:56;;;;;;;4.83;2.33;;;22.60;99.90;;;;;;4773845;30;20196;-86
2022/10/06 12:46:35;;;;;;;4.40;2.43;;;22.00;99.90;;;;;;4781960;29;20204;-83
2022/10/06 12:49:20;;;;;;;3.13;2.40;;;21.60;99.90;;;;;;4792337;29;20322;-81
2022/10/06 12:51:50;;;;;;;6.30;2.90;;;21.20;99.90;;;;;;4772831;29;20580;-77
2022/10/06 12:55:06;;;;;;;5.57;2.53;;;21.00;99.90;;;;;;4772162;30;21123;-85
2022/10/06 12:57:50;;;;;;;7.43;2.57;;;20.80;99.90;;;;;;4677384;30;20216;-83
2022/10/06 13:00:39;;;;;;;4.33;2.60;;;20.40;99.90;;;;;;4660303;30;20256;-82
2022/10/06 13:03:33;;;;;;;3.57;2.50;;;20.20;99.90;;;;;;4647830;30;20465;-79
2022/10/06 13:06:02;;;;;;;6.47;2.67;;;20.00;99.90;;;;;;4649417;30;20690;-81
2022/10/06 13:08:38;;;;;;;3.87;2.50;;;19.70;99.90;;;;;;4660602;30;20323;-81
2022/10/06 13:11:19;;;;;;;4.47;2.80;;;19.40;99.90;;;;;;4647020;30;20217;-87
2022/10/06 13:17:17;;;;;;;4.70;2.60;;;19.10;99.90;;;;;;4797399;24;20232;-84
2022/10/06 13:19:44;;;;;;;6.60;2.97;;;19.00;99.90;;;;;;4783144;24;20248;-81
2022/10/06 13:22:14;;;;;;;5.57;2.60;;;19.00;99.90;;;;;;4786627;29;20207;-84
2022/10/06 13:24:41;;;;;;;4.93;3.10;;;19.00;99.90;;;;;;4784874;29;20213;-85
2022/10/06 13:27:16;;;;;;;5.23;2.60;;;19.00;99.90;;;;;;4773321;30;20220;-82
2022/10/06 13:32:33;;;;;;;5.33;3.00;;;19.20;99.90;;;;;;4916801;24;20647;-81
2022/10/06 13:37:39;;;;;;;5.10;2.50;;;19.10;99.90;;;;;;5021055;24;20292;-81
2022/10/06 13:44:46;;;;;;;5.33;2.27;;;19.30;99.90;;;;;;4839893;24;20239;-83
2022/10/06 13:47:16;;;;;;;6.53;3.10;;;19.60;99.90;;;;;;4799135;29;20218;-80
2022/10/06 13:56:02;;;;;;;3.20;2.30;;;19.70;99.90;;;;;;5344920;24;20630;-77
2022/10/06 13:59:22;;;;;;;5.13;1.97;;;19.80;99.90;;;;;;4777246;29;20208;-73
2022/10/06 14:01:49;;;;;;;3.67;1.80;;;19.90;99.90;;;;;;4770049;29;20239;-79
2022/10/06 14:04:17;;;;;;;4.80;1.77;;;19.80;99.90;;;;;;4784389;29;20284;-81
2022/10/06 14:06:54;;;;;;;3.87;1.90;;;20.00;99.90;;;;;;4782754;29;20204;-81
2022/10/06 14:09:29;;;;;;;5.10;1.90;;;20.00;99.90;;;;;;4793193;29;20773;-74
2022/10/06 14:12:13;;;;;;;4.50;2.20;;;20.10;99.90;;;;;;4771032;30;20303;-74
2022/10/06 14:35:01;;;;;;;3.13;1.60;;;19.40;99.90;;;;;;4823318;24;20829;-77
2022/10/06 14:49:13;;;;;;;3.77;1.50;;;18.40;99.90;;;;;;5024499;24;20255;-79
2022/10/06 14:52:01;;;;;;;2.53;1.57;;;18.30;99.90;;;;;;4986970;24;20223;-76
2022/10/06 14:54:51;;;;;;;3.23;1.60;;;18.20;99.90;;;;;;4752459;30;20213;-77
2022/10/06 14:57:19;;;;;;;2.23;1.30;;;18.00;99.90;;;;;;4776137;29;20654;-73
2022/10/06 14:59:46;;;;;;;3.10;1.50;;;17.90;99.90;;;;;;4773886;30;20277;-72
2022/10/06 15:02:20;;;;;;;3.60;1.53;;;18.00;99.90;;;;;;4790290;29;20338;-76
2022/10/06 15:04:47;;;;;;;5.13;1.63;;;17.90;99.90;;;;;;4771457;30;20214;-76
2022/10/06 15:10:07;;;;;;;61.00;6.30;;;17.70;99.90;;;;;;4771613;30;20200;-72
2022/10/06 15:12:34;;;;;;;4.93;1.40;;;17.60;99.90;;;;;;4787357;30;20215;-74
2022/10/06 15:15:03;;;;;;;3.77;1.57;;;17.60;99.90;;;;;;4782713;30;20246;-73
2022/10/06 15:17:30;;;;;;;6.30;1.43;;;17.60;99.90;;;;;;4768505;30;20212;-75
2022/10/06 15:19:57;;;;;;;2.73;1.17;;;17.50;99.90;;;;;;4763813;30;20216;-71
2022/10/06 15:22:51;;;;;;;6.67;1.57;;;17.40;99.90;;;;;;4771347;30;20276;-75
2022/10/06 15:30:49;;;;;;;2.27;1.13;;;17.30;99.90;;;;;;4771471;29;20716;-74
2022/10/06 15:33:16;;;;;;;2.93;1.33;;;17.20;99.90;;;;;;4771202;30;20204;-74
2022/10/06 15:36:00;;;;;;;2.60;1.30;;;17.30;99.90;;;;;;4771521;30;20200;-74
2022/10/06 15:38:27;;;;;;;2.87;1.40;;;17.20;99.90;;;;;;4770977;30;20311;-74
2022/10/06 15:41:03;;;;;;;1.97;1.20;;;17.20;99.90;;;;;;4771310;30;20209;-73
2022/10/06 15:46:17;;;;;;;2.43;1.13;;;17.20;99.90;;;;;;4771356;30;20211;-74
2022/10/06 15:48:44;;;;;;;4.60;1.20;;;17.00;99.90;;;;;;4770758;30;20230;-75
2022/10/06 15:51:14;;;;;;;2.80;1.40;;;17.00;99.90;;;;;;4771133;30;20213;-75
2022/10/06 15:53:44;;;;;;;5.70;1.20;;;17.00;99.90;;;;;;4771069;30;20239;-75
2022/10/06 15:56:11;;;;;;;4.53;1.40;;;16.80;99.90;;;;;;4771399;30;20558;-74
2022/10/06 15:58:38;;;;;;;3.27;1.47;;;16.80;99.90;;;;;;4770566;29;20235;-75
2022/10/06 16:01:09;;;;;;;2.13;1.30;;;16.70;99.90;;;;;;4787525;29;20192;-74
2022/10/06 16:03:38;;;;;;;4.40;1.37;;;16.60;99.90;;;;;;4768030;29;20217;-74
2022/10/06 16:06:08;;;;;;;4.67;1.60;;;16.60;99.90;;;;;;4774089;29;20200;-76
2022/10/06 16:08:37;;;;;;;8.43;1.73;;;16.40;99.90;;;;;;4774600;29;20227;-72
2022/10/06 16:11:20;;;;;;;3.97;1.50;;;16.40;99.90;;;;;;4793297;29;20249;-76
2022/10/06 16:14:08;;;;;;;6.87;2.77;;;16.30;99.90;;;;;;4751393;30;20225;-76
2022/10/06 16:16:41;;;;;;;2.70;1.53;;;16.20;99.90;;;;;;4738196;30;20209;-76
2022/10/06 16:19:10;;;;;;;3.73;1.50;;;16.20;99.90;;;;;;4734911;30;20297;-77
2022/10/06 16:21:46;;;;;;;2.93;1.50;;;16.10;99.90;;;;;;4735924;30;20228;-77
2022/10/06 16:24:14;;;;;;;4.70;1.80;;;16.00;99.90;;;;;;4738403;30;20213;-81
2022/10/06 16:26:41;;;;;;;4.33;1.67;;;15.90;99.90;;;;;;4738721;30;20586;-83
2022/10/06 16:29:08;;;;;;;5.03;1.70;;;15.90;99.90;;;;;;4737834;30;20233;-80
2022/10/06 16:32:03;;;;;;;3.17;1.50;;;15.80;99.90;;;;;;4760094;24;20247;-82
2022/10/06 16:37:50;;;;;;;3.73;1.70;;;15.70;99.90;;;;;;5058858;24;20330;-82
2022/10/06 16:46:24;;;;;;;6.67;2.10;;;15.50;99.90;;;;;;1245885;27;20220;-83
2022/10/06 16:49:09;;;;;;;8.53;4.03;;;15.50;99.90;;;;;;4769728;30;20280;-84
2022/10/06 16:52:09;;;;;;;5.87;2.50;;;15.40;99.90;;;;;;5049854;24;20236;-83
2022/10/06 16:57:23;;;;;;;4.90;2.10;;;15.20;99.90;;;;;;4876980;24;20236;-83
2022/10/06 17:03:58;;;;;;;6.80;1.80;;;15.10;99.90;;;;;;4823710;24;20244;-86
2022/10/06 17:06:46;;;;;;;5.67;2.07;;;15.00;99.90;;;;;;4786424;29;20303;-84
2022/10/06 17:09:37;;;;;;;6.73;2.20;;;14.90;99.90;;;;;;4762165;30;20282;-79
2022/10/06 17:12:27;;;;;;;6.93;2.17;;;14.90;99.90;;;;;;4771079;30;20200;-82
2022/10/06 17:14:57;;;;;;;7.47;2.20;;;14.90;99.90;;;;;;4772852;30;20223;-84
2022/10/06 17:17:24;;;;;;;4.07;1.83;;;14.80;99.90;;;;;;4777046;30;20208;-83
2022/10/06 17:19:52;;;;;;;6.93;2.30;;;14.80;99.90;;;;;;4787747;30;20292;-85
2022/10/06 17:22:22;;;;;;;5.20;1.87;;;14.80;99.90;;;;;;4771344;30;20204;-80
2022/10/06 17:24:59;;;;;;;6.27;2.30;;;14.70;99.90;;;;;;4758810;30;20564;-82
2022/10/06 17:28:04;;;;;;;4.93;2.17;;;14.80;99.90;;;;;;4755817;30;20199;-84
2022/10/06 17:30:31;;;;;;;8.30;2.43;;;14.80;99.90;;;;;;4755953;30;20312;-88
2022/10/06 17:32:58;;;;;;;4.17;2.70;;;14.70;99.90;;;;;;4755721;30;20213;-86
2022/10/06 17:35:41;;;;;;;5.63;2.60;;;14.60;99.90;;;;;;4755458;30;20209;-84
2022/10/06 17:38:08;;;;;;;11.93;2.40;;;14.60;99.90;;;;;;4755644;30;20743;-84
2022/10/06 17:41:09;;;;;;;4.80;2.30;;;14.60;99.90;;;;;;4755797;30;20204;-88
2022/10/06 17:44:51;;;;;;;5.23;2.40;;;14.60;99.90;;;;;;4774151;30;20220;-84
2022/10/06 17:47:51;;;;;;;5.13;2.27;;;14.60;99.90;;;;;;4774229;30;20291;-78
2022/10/06 17:50:18;;;;;;;4.33;2.30;;;14.40;99.90;;;;;;4763089;30;20232;-84
2022/10/06 17:53:04;;;;;;;5.03;2.20;;;14.40;99.90;;;;;;4779464;30;20206;-78
2022/10/06 17:55:48;;;;;;;6.70;2.10;;;14.50;99.90;;;;;;4754723;30;20208;-78
2022/10/06 17:58:15;;;;;;;7.47;2.50;;;14.30;99.90;;;;;;4778991;29;20210;-81
2022/10/06 18:00:44;;;;;;;5.00;2.10;;;14.30;99.90;;;;;;4749757;30;20229;-86
2022/10/06 18:03:15;;;;;;;6.27;2.47;;;14.30;99.90;;;;;;4747004;30;20692;-84
2022/10/06 18:08:47;;;;;;;8.63;2.67;;;14.30;99.90;;;;;;4748746;30;20245;-81
2022/10/06 18:11:34;;;;;;;4.43;2.23;;;14.30;99.90;;;;;;4749061;30;20222;-84
2022/10/06 18:23:37;;;;;;;4.53;2.00;;;14.00;99.90;;;;;;4741134;30;20238;-84
2022/10/06 18:26:05;;;;;;;5.53;3.20;;;14.00;99.90;;;;;;4773188;24;20239;-83
2022/10/06 18:28:48;;;;;;;6.27;3.10;;;14.00;99.90;;;;;;4769618;30;20687;-86
2022/10/06 18:31:17;;;;;;;6.33;2.60;;;13.90;99.90;;;;;;4764888;30;20218;-82
2022/10/06 18:33:46;;;;;;;4.77;2.30;;;14.00;99.90;;;;;;4766746;30;20209;-84
2022/10/06 18:39:14;;;;;;;8.57;2.43;;;14.10;99.90;;;;;;4793555;24;20241;-82
2022/10/06 18:42:18;;;;;;;5.63;2.40;;;14.10;99.90;;;;;;4772977;24;20242;-75
2022/10/06 18:51:47;;;;;;;6.43;3.10;;;13.90;99.90;;;;;;4772986;30;20305;-82
2022/10/06 18:54:35;;;;;;;9.03;4.00;;;13.70;99.90;;;;;;4768932;30;20656;-85
2022/10/06 18:57:28;;;;;;;9.30;4.10;;;13.80;99.90;;;;;;4768442;30;20207;-81
2022/10/06 19:00:27;;;;;;;10.83;5.53;;;13.70;99.90;;;;;;4768555;30;20232;-83
2022/10/06 19:15:11;;;;;;;17.40;6.73;;;13.30;99.90;;;;;;4786619;27;20247;-79
2022/10/06 19:20:48;;;;;;;10.73;6.33;;;13.10;99.90;;;;;;4805133;24;20250;-81
2022/10/06 19:23:15;;;;;;;12.77;6.20;;;12.90;99.90;;;;;;4750110;30;20350;-86
2022/10/06 19:25:43;;;;;;;11.47;6.17;;;13.00;99.90;;;;;;4754406;30;20214;-86
2022/10/06 19:28:09;;;;;;;13.20;6.53;;;13.00;99.90;;;;;;4750678;30;20212;-82
2022/10/06 19:31:11;;;;;;;11.60;6.07;;;12.90;99.90;;;;;;4704459;30;20301;-82
2022/10/06 19:34:10;;;;;;;;;;;;;;;;;;;;;
2022/10/06 19:36:51;;;;;;;14.10;6.93;;;12.90;99.90;;;;;;4749690;30;20214;-85
2022/10/06 19:39:25;;;;;;;15.40;7.10;;;12.80;99.90;;;;;;4738720;30;20209;-74
2022/10/06 19:44:39;;;;;;;12.93;6.63;;;12.60;99.90;;;;;;4753895;30;20209;-81
2022/10/06 19:47:13;;;;;;;15.67;6.93;;;12.50;99.90;;;;;;4739052;30;20312;-75
2022/10/06 19:49:41;;;;;;;12.87;6.80;;;12.40;99.90;;;;;;4753299;30;20225;-79
2022/10/06 19:52:10;;;;;;;15.43;7.63;;;12.40;99.90;;;;;;4752432;30;20213;-77
2022/10/06 19:55:15;;;;;;;13.47;6.67;;;12.30;99.90;;;;;;4733274;30;20314;-84
2022/10/06 20:03:00;;;;;;;12.40;7.30;;;12.20;99.90;;;;;;4763782;30;20185;-83
2022/10/06 20:17:46;;;;;;;16.63;8.50;;;12.00;99.90;;;;;;4780673;29;20732;-90
2022/10/06 20:23:26;;;;;;;16.47;8.43;;;11.90;99.90;;;;;;4917595;24;20251;-84
2022/10/06 20:44:32;;;;;;;17.20;9.00;;;11.70;99.90;;;;;;5062738;24;20252;-85
2022/10/06 20:48:00;;;;;;;17.83;8.93;;;11.60;99.90;;;;;;4770239;30;20212;-79
2022/10/06 20:55:54;;;;;;;16.77;9.03;;;11.50;99.90;;;;;;4793334;24;20236;-85